createdAt,value
2017-05-17T00:00:20.978Z,89.30
2017-05-17T00:02:49.658Z,89.30
2017-05-17T00:05:18.307Z,89.40
2017-05-17T00:07:46.567Z,89.40
2017-05-17T00:10:15.129Z,89.40
2017-05-17T00:12:43.774Z,89.30
2017-05-17T00:15:12.432Z,89.30
2017-05-17T00:17:40.811Z,89.30
2017-05-17T00:20:09.461Z,89.30
2017-05-17T00:22:38.113Z,89.30
2017-05-17T00:25:06.994Z,89.30
2017-05-17T00:27:35.650Z,89.20
2017-05-17T00:30:04.299Z,89.10
2017-05-17T00:32:32.582Z,89.10
2017-05-17T00:35:01.234Z,89.20
2017-05-17T00:37:41.639Z,89.20
2017-05-17T00:40:28.268Z,89.10
2017-05-17T00:43:15.489Z,89.20
2017-05-17T00:46:02.347Z,89.20
2017-05-17T00:48:48.915Z,89.20
2017-05-17T00:51:35.700Z,89.30
2017-05-17T00:54:10.363Z,89.20
2017-05-17T00:56:38.618Z,89.20
2017-05-17T00:59:07.263Z,89.20
2017-05-17T01:01:35.945Z,89.10
2017-05-17T01:04:04.589Z,89.10
2017-05-17T01:06:33.240Z,89.20
2017-05-17T01:09:01.522Z,89.20
2017-05-17T01:11:30.174Z,89.10
2017-05-17T01:13:58.827Z,89.00
2017-05-17T01:16:27.504Z,89.10
2017-05-17T01:18:55.759Z,89.10
2017-05-17T01:21:24.408Z,89.10
2017-05-17T01:23:53.338Z,89.20
2017-05-17T01:26:21.594Z,89.20
2017-05-17T01:28:50.249Z,89.20
2017-05-17T01:31:18.527Z,89.20
2017-05-17T01:33:47.178Z,89.20
2017-05-17T01:36:15.826Z,89.20
2017-05-17T01:38:44.110Z,89.20
2017-05-17T01:41:12.771Z,89.20
2017-05-17T01:43:41.414Z,89.20
2017-05-17T01:46:10.351Z,89.10
2017-05-17T01:48:39.019Z,89.20
2017-05-17T01:51:07.865Z,89.20
2017-05-17T01:53:36.813Z,89.10
2017-05-17T01:56:05.466Z,89.10
2017-05-17T01:58:34.115Z,89.10
2017-05-17T02:01:02.796Z,89.00
2017-05-17T02:03:31.443Z,89.00
2017-05-17T02:06:00.098Z,89.00
2017-05-17T02:08:28.947Z,89.00
2017-05-17T02:10:57.589Z,88.70
2017-05-17T02:13:26.612Z,88.80
2017-05-17T02:15:55.289Z,89.00
2017-05-17T02:18:23.935Z,88.90
2017-05-17T02:20:53.198Z,89.00
2017-05-17T02:23:22.033Z,89.00
2017-05-17T02:25:50.687Z,88.90
2017-05-17T02:28:19.351Z,88.90
2017-05-17T02:30:48.120Z,88.80
2017-05-17T02:33:16.764Z,88.90
2017-05-17T02:35:45.776Z,88.90
2017-05-17T02:38:14.060Z,88.90
2017-05-17T02:40:42.703Z,88.80
2017-05-17T02:43:11.340Z,88.90
2017-05-17T02:45:40.109Z,88.90
2017-05-17T02:48:08.760Z,88.90
2017-05-17T02:50:37.006Z,88.90
2017-05-17T02:53:06.237Z,88.90
2017-05-17T02:55:35.253Z,88.80
2017-05-17T02:58:03.910Z,88.90
2017-05-17T03:00:33.220Z,88.70
2017-05-17T03:03:01.469Z,88.70
2017-05-17T03:05:30.109Z,88.70
2017-05-17T03:07:59.237Z,88.70
2017-05-17T03:10:28.270Z,88.60
2017-05-17T03:12:56.518Z,88.60
2017-05-17T03:15:25.208Z,88.60
2017-05-17T03:17:54.221Z,88.70
2017-05-17T03:20:22.870Z,88.50
2017-05-17T03:22:51.542Z,88.40
2017-05-17T03:25:20.190Z,88.50
2017-05-17T03:27:49.024Z,88.50
2017-05-17T03:30:18.273Z,88.50
2017-05-17T03:32:46.518Z,88.50
2017-05-17T03:35:15.167Z,88.40
2017-05-17T03:37:43.445Z,88.40
2017-05-17T03:40:12.091Z,88.30
2017-05-17T03:42:40.741Z,88.30
2017-05-17T03:45:09.018Z,88.30
2017-05-17T03:47:37.681Z,88.30
2017-05-17T03:50:06.320Z,88.10
2017-05-17T03:52:35.171Z,88.00
2017-05-17T03:55:03.993Z,88.00
2017-05-17T03:57:32.645Z,87.90
2017-05-17T04:00:01.329Z,88.00
2017-05-17T04:02:29.974Z,87.90
2017-05-17T04:04:58.613Z,87.80
2017-05-17T04:07:26.893Z,87.80
2017-05-17T04:09:55.546Z,87.70
2017-05-17T04:12:23.796Z,87.70
2017-05-17T04:14:52.469Z,88.10
2017-05-17T04:17:21.116Z,88.00
2017-05-17T04:19:49.765Z,87.70
2017-05-17T04:22:19.071Z,87.80
2017-05-17T04:24:47.689Z,87.80
2017-05-17T04:27:16.335Z,87.90
2017-05-17T04:29:44.609Z,87.90
2017-05-17T04:32:12.871Z,87.70
2017-05-17T04:34:41.881Z,87.80
2017-05-17T04:37:10.550Z,87.80
2017-05-17T04:39:38.813Z,87.80
2017-05-17T04:42:09.242Z,87.90
2017-05-17T04:44:37.921Z,87.50
2017-05-17T04:47:06.938Z,87.70
2017-05-17T04:49:35.595Z,87.50
2017-05-17T04:52:03.879Z,87.50
2017-05-17T04:54:32.890Z,87.40
2017-05-17T04:57:01.713Z,87.50
2017-05-17T04:59:30.343Z,87.50
2017-05-17T05:01:59.352Z,87.10
2017-05-17T05:04:27.606Z,87.10
2017-05-17T05:06:56.308Z,87.30
2017-05-17T05:09:24.950Z,87.20
2017-05-17T05:11:53.594Z,87.20
2017-05-17T05:14:22.453Z,87.20
2017-05-17T05:16:51.121Z,87.40
2017-05-17T05:19:20.138Z,87.20
2017-05-17T05:21:48.713Z,87.20
2017-05-17T05:24:16.962Z,87.20
2017-05-17T05:26:45.986Z,86.90
2017-05-17T05:29:14.267Z,86.90
2017-05-17T05:31:42.913Z,87.20
2017-05-17T05:34:11.960Z,87.20
2017-05-17T05:36:40.615Z,87.00
2017-05-17T05:39:09.257Z,87.10
2017-05-17T05:41:37.557Z,87.10
2017-05-17T05:44:07.474Z,87.40
2017-05-17T05:46:35.730Z,87.40
2017-05-17T05:49:04.373Z,87.30
2017-05-17T05:51:33.041Z,87.40
2017-05-17T05:54:01.687Z,87.50
2017-05-17T05:56:29.934Z,87.50
2017-05-17T05:58:58.709Z,87.60
2017-05-17T06:01:27.353Z,87.50
2017-05-17T06:03:56.006Z,87.40
2017-05-17T06:06:24.975Z,87.30
2017-05-17T06:08:53.617Z,87.50
2017-05-17T06:11:22.937Z,87.20
2017-05-17T06:13:51.476Z,87.20
2017-05-17T06:16:20.493Z,87.20
2017-05-17T06:18:49.807Z,87.20
2017-05-17T06:21:18.825Z,87.00
2017-05-17T06:23:47.473Z,87.10
2017-05-17T06:26:16.127Z,87.20
2017-05-17T06:28:44.812Z,87.00
2017-05-17T06:31:14.242Z,87.00
2017-05-17T06:33:42.504Z,87.00
2017-05-17T06:36:11.080Z,86.80
2017-05-17T06:38:39.729Z,86.80
2017-05-17T06:41:08.399Z,86.70
2017-05-17T06:43:37.410Z,86.60
2017-05-17T06:46:06.422Z,86.50
2017-05-17T06:48:35.074Z,86.50
2017-05-17T06:51:04.454Z,86.40
2017-05-17T06:53:33.100Z,86.40
2017-05-17T06:56:01.349Z,86.40
2017-05-17T06:58:30.021Z,86.00
2017-05-17T07:00:58.669Z,86.10
2017-05-17T07:03:28.705Z,85.90
2017-05-17T07:05:57.753Z,86.10
2017-05-17T07:08:26.394Z,86.00
2017-05-17T07:10:54.676Z,86.00
2017-05-17T07:13:22.952Z,85.90
2017-05-17T07:15:51.213Z,85.80
2017-05-17T07:18:19.989Z,86.10
2017-05-17T07:20:48.823Z,85.80
2017-05-17T07:23:17.755Z,85.90
2017-05-17T07:25:46.416Z,85.90
2017-05-17T07:28:15.073Z,86.20
2017-05-17T07:30:43.731Z,86.20
2017-05-17T07:33:12.396Z,86.00
2017-05-17T07:35:41.170Z,86.40
2017-05-17T07:38:09.818Z,86.30
2017-05-17T07:40:38.476Z,86.30
2017-05-17T07:43:07.513Z,86.50
2017-05-17T07:45:36.172Z,86.40
2017-05-17T07:48:05.308Z,86.30
2017-05-17T07:50:33.988Z,86.30
2017-05-17T07:53:02.636Z,86.30
2017-05-17T07:55:31.316Z,86.40
2017-05-17T07:58:00.372Z,86.20
2017-05-17T08:00:29.027Z,85.80
2017-05-17T08:02:58.189Z,85.80
2017-05-17T08:05:27.378Z,86.00
2017-05-17T08:07:56.026Z,85.80
2017-05-17T08:10:24.668Z,85.60
2017-05-17T08:12:52.949Z,85.60
2017-05-17T08:15:21.602Z,85.40
2017-05-17T08:17:50.241Z,85.10
2017-05-17T08:20:19.407Z,84.70
2017-05-17T08:22:48.065Z,84.20
2017-05-17T08:25:16.713Z,84.10
2017-05-17T08:27:45.392Z,83.50
2017-05-17T08:30:14.041Z,83.30
2017-05-17T08:32:42.677Z,82.40
2017-05-17T08:35:11.711Z,82.40
2017-05-17T08:37:40.362Z,82.20
2017-05-17T08:40:09.377Z,81.50
2017-05-17T08:42:37.838Z,81.40
2017-05-17T08:45:06.497Z,80.60
2017-05-17T08:47:35.517Z,80.70
2017-05-17T08:50:04.196Z,80.30
2017-05-17T08:52:32.846Z,79.20
2017-05-17T08:55:01.509Z,78.70
2017-05-17T08:57:30.587Z,78.90
2017-05-17T08:59:59.941Z,78.90
2017-05-17T09:02:28.569Z,77.40
2017-05-17T09:04:58.074Z,76.60
2017-05-17T09:07:26.290Z,76.60
2017-05-17T09:09:54.941Z,76.00
2017-05-17T09:12:24.657Z,76.20
2017-05-17T09:14:52.910Z,76.20
2017-05-17T09:17:21.769Z,76.30
2017-05-17T09:19:50.755Z,75.50
2017-05-17T09:22:19.012Z,75.50
2017-05-17T09:24:47.672Z,74.00
2017-05-17T09:27:16.601Z,75.10
2017-05-17T09:29:44.841Z,75.10
2017-05-17T09:32:13.103Z,74.40
2017-05-17T09:34:41.878Z,75.00
2017-05-17T09:37:10.528Z,74.40
2017-05-17T09:39:39.162Z,73.70
2017-05-17T09:42:08.003Z,72.80
2017-05-17T09:44:36.242Z,72.80
2017-05-17T09:47:05.262Z,72.00
2017-05-17T09:49:33.918Z,71.00
2017-05-17T09:52:02.938Z,71.40
2017-05-17T09:54:31.573Z,68.40
2017-05-17T09:57:00.600Z,66.80
2017-05-17T09:59:29.628Z,66.80
2017-05-17T10:01:58.260Z,66.60
2017-05-17T10:04:26.925Z,65.90
2017-05-17T10:06:55.579Z,65.60
2017-05-17T10:09:24.235Z,64.30
2017-05-17T10:11:53.114Z,63.10
2017-05-17T10:14:21.376Z,63.20
2017-05-17T10:16:50.386Z,62.50
2017-05-17T10:19:19.236Z,61.90
2017-05-17T10:21:47.880Z,62.60
2017-05-17T10:24:16.811Z,61.60
2017-05-17T10:26:45.835Z,61.30
2017-05-17T10:29:14.848Z,61.30
2017-05-17T10:31:43.486Z,60.80
2017-05-17T10:34:12.169Z,61.10
2017-05-17T10:36:40.808Z,61.60
2017-05-17T10:39:09.447Z,61.20
2017-05-17T10:41:38.512Z,61.20
2017-05-17T10:44:07.149Z,59.70
2017-05-17T10:46:35.790Z,59.90
2017-05-17T10:49:05.268Z,61.00
2017-05-17T10:51:33.864Z,60.30
2017-05-17T10:54:02.499Z,60.60
2017-05-17T10:56:31.184Z,58.80
2017-05-17T10:58:59.823Z,58.40
2017-05-17T11:01:28.466Z,59.40
2017-05-17T11:03:57.145Z,59.40
2017-05-17T11:06:25.783Z,59.60
2017-05-17T11:08:54.435Z,58.90
2017-05-17T11:11:23.095Z,56.90
2017-05-17T11:13:51.727Z,56.80
2017-05-17T11:16:19.974Z,56.80
2017-05-17T11:18:48.651Z,55.90
2017-05-17T11:21:17.299Z,56.20
2017-05-17T11:23:45.942Z,57.00
2017-05-17T11:26:14.854Z,55.60
2017-05-17T11:28:43.871Z,54.40
2017-05-17T11:31:12.522Z,53.10
2017-05-17T11:33:41.576Z,50.60
2017-05-17T11:36:10.223Z,49.40
2017-05-17T11:38:38.869Z,51.60
2017-05-17T11:41:07.900Z,51.70
2017-05-17T11:43:36.531Z,53.10
2017-05-17T11:46:05.187Z,52.40
2017-05-17T11:48:34.135Z,53.00
2017-05-17T11:51:03.138Z,50.50
2017-05-17T11:53:31.377Z,50.50
2017-05-17T11:56:00.048Z,51.80
2017-05-17T11:58:28.685Z,51.90
2017-05-17T12:00:57.336Z,52.40
2017-05-17T12:03:26.001Z,52.40
2017-05-17T12:05:54.659Z,53.00
2017-05-17T12:08:23.294Z,53.00
2017-05-17T12:10:52.645Z,52.50
2017-05-17T12:13:21.257Z,52.30
2017-05-17T12:15:49.893Z,53.60
2017-05-17T12:18:18.556Z,52.10
2017-05-17T12:20:47.578Z,50.70
2017-05-17T12:23:16.212Z,49.60
2017-05-17T12:25:44.482Z,49.60
2017-05-17T12:28:13.117Z,51.10
2017-05-17T12:30:41.753Z,47.80
2017-05-17T12:33:10.434Z,48.30
2017-05-17T12:35:38.677Z,48.30
2017-05-17T12:38:07.315Z,48.50
2017-05-17T12:40:35.605Z,48.60
2017-05-17T12:43:04.249Z,49.50
2017-05-17T12:45:33.258Z,48.30
2017-05-17T12:48:02.591Z,48.60
2017-05-17T12:50:31.228Z,47.30
2017-05-17T12:52:59.876Z,48.40
2017-05-17T12:55:28.534Z,48.20
2017-05-17T12:57:57.167Z,46.90
2017-05-17T13:00:26.117Z,44.80
2017-05-17T13:02:54.790Z,45.70
2017-05-17T13:05:23.448Z,46.80
2017-05-17T13:07:52.449Z,45.50
2017-05-17T13:10:21.109Z,46.90
2017-05-17T13:12:50.484Z,46.90
2017-05-17T13:15:19.115Z,46.20
2017-05-17T13:17:47.417Z,46.20
2017-05-17T13:20:16.072Z,46.60
2017-05-17T13:22:44.740Z,46.20
2017-05-17T13:25:13.777Z,46.10
2017-05-17T13:27:43.081Z,46.20
2017-05-17T13:30:11.731Z,45.70
2017-05-17T13:32:40.407Z,45.40
2017-05-17T13:35:09.034Z,46.50
2017-05-17T13:37:37.676Z,46.40
2017-05-17T13:40:06.472Z,45.80
2017-05-17T13:42:35.089Z,45.80
2017-05-17T13:45:03.740Z,45.60
2017-05-17T13:47:32.436Z,45.80
2017-05-17T13:50:01.079Z,45.20
2017-05-17T13:52:30.109Z,44.80
2017-05-17T13:54:58.773Z,43.20
2017-05-17T13:57:27.424Z,44.20
2017-05-17T13:59:56.080Z,43.80
2017-05-17T14:02:25.010Z,44.40
2017-05-17T14:04:54.022Z,43.50
2017-05-17T14:07:22.263Z,43.50
2017-05-17T14:09:51.306Z,43.80
2017-05-17T14:12:19.959Z,45.00
2017-05-17T14:14:49.098Z,43.90
2017-05-17T14:17:18.522Z,44.20
2017-05-17T14:19:47.170Z,43.50
2017-05-17T14:22:16.068Z,44.60
2017-05-17T14:24:44.922Z,44.20
2017-05-17T14:27:13.571Z,45.00
2017-05-17T14:29:42.790Z,45.00
2017-05-17T14:32:11.060Z,44.60
2017-05-17T14:34:39.611Z,45.60
2017-05-17T14:37:08.252Z,46.30
2017-05-17T14:39:37.436Z,46.80
2017-05-17T14:42:06.077Z,48.00
2017-05-17T14:44:34.710Z,47.70
2017-05-17T14:47:02.984Z,47.70
2017-05-17T14:49:31.240Z,47.20
2017-05-17T14:52:00.252Z,47.70
2017-05-17T14:54:29.110Z,48.30
2017-05-17T14:56:57.365Z,48.30
2017-05-17T14:59:25.605Z,48.40
2017-05-17T15:01:54.441Z,49.80
2017-05-17T15:04:23.449Z,50.40
2017-05-17T15:06:52.390Z,50.00
2017-05-17T15:09:21.213Z,50.30
2017-05-17T15:11:50.242Z,50.40
2017-05-17T15:14:18.885Z,50.50
2017-05-17T15:16:48.285Z,52.30
2017-05-17T15:19:16.651Z,52.30
2017-05-17T15:21:45.288Z,53.10
2017-05-17T15:24:13.967Z,53.90
2017-05-17T15:26:42.760Z,52.60
2017-05-17T15:29:11.411Z,53.90
2017-05-17T15:31:40.714Z,53.60
2017-05-17T15:34:08.965Z,53.60
2017-05-17T15:36:37.982Z,55.10
2017-05-17T15:39:06.664Z,55.20
2017-05-17T15:41:35.289Z,55.90
2017-05-17T15:44:03.940Z,55.00
2017-05-17T15:46:33.817Z,55.50
2017-05-17T15:49:02.454Z,56.00
2017-05-17T15:51:30.713Z,56.00
2017-05-17T15:53:59.611Z,55.20
2017-05-17T15:56:28.264Z,55.10
2017-05-17T15:58:56.506Z,55.10
2017-05-17T16:01:24.761Z,56.00
2017-05-17T16:03:53.413Z,55.50
2017-05-17T16:06:22.050Z,55.30
2017-05-17T16:08:52.539Z,55.30
2017-05-17T16:11:21.162Z,56.00
2017-05-17T16:13:50.194Z,56.40
2017-05-17T16:16:18.804Z,56.20
2017-05-17T16:18:47.412Z,55.40
2017-05-17T16:21:15.670Z,55.40
2017-05-17T16:23:44.290Z,56.30
2017-05-17T16:26:12.912Z,56.80
2017-05-17T16:28:41.540Z,56.80
2017-05-17T16:31:10.575Z,56.90
2017-05-17T16:33:38.759Z,56.90
2017-05-17T16:36:07.492Z,57.00
2017-05-17T16:38:36.477Z,56.90
2017-05-17T16:41:05.098Z,57.10
2017-05-17T16:43:33.729Z,57.30
2017-05-17T16:46:02.351Z,57.50
2017-05-17T16:48:30.967Z,57.80
2017-05-17T16:50:59.605Z,57.80
2017-05-17T16:53:28.597Z,58.00
2017-05-17T16:55:56.812Z,58.00
2017-05-17T16:58:25.666Z,58.10
2017-05-17T17:00:54.289Z,57.60
2017-05-17T17:03:22.975Z,57.90
2017-05-17T17:05:51.584Z,58.20
2017-05-17T17:08:20.430Z,58.10
2017-05-17T17:10:49.036Z,58.50
2017-05-17T17:13:18.060Z,58.70
2017-05-17T17:15:47.045Z,58.60
2017-05-17T17:18:16.446Z,58.90
2017-05-17T17:20:45.452Z,58.70
2017-05-17T17:23:14.420Z,58.00
2017-05-17T17:25:43.380Z,58.60
2017-05-17T17:28:11.958Z,58.80
2017-05-17T17:30:40.809Z,58.90
2017-05-17T17:33:09.593Z,58.40
2017-05-17T17:35:38.565Z,58.50
2017-05-17T17:38:07.163Z,58.70
2017-05-17T17:40:36.180Z,58.50
2017-05-17T17:43:04.400Z,58.50
2017-05-17T17:45:33.011Z,58.80
2017-05-17T17:48:01.983Z,58.50
2017-05-17T17:50:30.961Z,58.90
2017-05-17T17:52:59.180Z,58.90
2017-05-17T17:55:27.831Z,59.20
2017-05-17T17:57:56.059Z,59.20
2017-05-17T18:00:24.290Z,59.40
2017-05-17T18:02:53.253Z,58.90
2017-05-17T18:05:22.779Z,59.10
2017-05-17T18:07:51.760Z,58.80
2017-05-17T18:10:20.772Z,59.00
2017-05-17T18:12:49.396Z,59.30
2017-05-17T18:15:17.996Z,59.40
2017-05-17T18:17:46.339Z,59.40
2017-05-17T18:20:14.944Z,59.90
2017-05-17T18:22:43.652Z,59.90
2017-05-17T18:25:12.268Z,59.90
2017-05-17T18:27:41.309Z,60.10
2017-05-17T18:30:09.908Z,60.20
2017-05-17T18:32:38.445Z,60.20
2017-05-17T18:35:06.671Z,60.50
2017-05-17T18:37:35.661Z,60.50
2017-05-17T18:40:04.128Z,60.50
2017-05-17T18:42:32.750Z,60.90
2017-05-17T18:45:01.387Z,61.10
2017-05-17T18:47:29.627Z,61.00
2017-05-17T18:49:58.245Z,61.20
2017-05-17T18:52:26.880Z,61.50
2017-05-17T18:54:55.108Z,61.50
2017-05-17T18:57:23.725Z,61.80
2017-05-17T18:59:52.440Z,61.80
2017-05-17T19:02:21.552Z,62.10
2017-05-17T19:04:50.324Z,62.00
2017-05-17T19:07:18.976Z,62.00
2017-05-17T19:09:47.904Z,62.30
2017-05-17T19:12:16.622Z,62.60
2017-05-17T19:14:45.344Z,62.70
2017-05-17T19:17:14.270Z,62.80
2017-05-17T19:19:42.956Z,63.20
2017-05-17T19:22:11.706Z,63.10
2017-05-17T19:24:40.501Z,63.40
2017-05-17T19:27:09.271Z,63.60
2017-05-17T19:29:38.277Z,63.60
2017-05-17T19:32:06.764Z,63.70
2017-05-17T19:34:35.610Z,64.10
2017-05-17T19:37:04.227Z,64.10
2017-05-17T19:39:32.594Z,64.40
2017-05-17T19:42:01.393Z,64.80
2017-05-17T19:44:30.183Z,65.20
2017-05-17T19:46:59.450Z,65.40
2017-05-17T19:49:29.011Z,65.80
2017-05-17T19:51:58.202Z,66.10
2017-05-17T19:54:27.489Z,66.10
2017-05-17T19:56:56.242Z,66.40
2017-05-17T19:59:24.981Z,66.60
2017-05-17T20:01:54.364Z,67.00
2017-05-17T20:04:23.249Z,67.10
2017-05-17T20:06:52.222Z,67.50
2017-05-17T20:09:20.940Z,67.50
2017-05-17T20:11:49.821Z,67.50
2017-05-17T20:14:18.506Z,67.40
2017-05-17T20:16:47.041Z,67.40
2017-05-17T20:19:15.679Z,67.70
2017-05-17T20:21:44.388Z,67.60
2017-05-17T20:24:13.242Z,67.60
2017-05-17T20:26:41.938Z,67.60
2017-05-17T20:29:11.597Z,67.50
2017-05-17T20:31:40.241Z,67.40
2017-05-17T20:34:09.529Z,67.40
2017-05-17T20:36:38.119Z,67.20
2017-05-17T20:39:08.223Z,67.20
2017-05-17T20:41:37.128Z,67.20
2017-05-17T20:44:06.104Z,67.00
2017-05-17T20:46:34.748Z,67.00
2017-05-17T20:49:03.069Z,66.90
2017-05-17T20:51:31.667Z,66.60
2017-05-17T20:54:01.301Z,66.60
2017-05-17T20:56:29.526Z,66.70
2017-05-17T20:58:58.152Z,66.60
2017-05-17T21:01:27.369Z,66.60
2017-05-17T21:03:55.972Z,67.20
2017-05-17T21:06:24.576Z,67.10
2017-05-17T21:08:53.771Z,67.30
2017-05-17T21:11:22.371Z,67.00
2017-05-17T21:13:51.004Z,67.20
2017-05-17T21:16:19.654Z,67.40
2017-05-17T21:18:48.279Z,67.70
2017-05-17T21:21:16.889Z,67.70
2017-05-17T21:23:45.761Z,67.60
2017-05-17T21:26:14.360Z,67.50
2017-05-17T21:28:42.580Z,67.50
2017-05-17T21:31:11.312Z,67.90
2017-05-17T21:33:39.644Z,67.90
2017-05-17T21:36:08.254Z,67.90
2017-05-17T21:38:36.865Z,68.00
2017-05-17T21:41:05.251Z,67.90
2017-05-17T21:43:33.459Z,68.10
2017-05-17T21:46:02.090Z,68.40
2017-05-17T21:48:31.112Z,68.30
2017-05-17T21:50:59.316Z,68.30
2017-05-17T21:53:27.921Z,68.50
2017-05-17T21:55:56.804Z,68.70
2017-05-17T21:58:25.016Z,68.70
2017-05-17T22:00:53.632Z,69.00
2017-05-17T22:03:22.237Z,69.00
2017-05-17T22:05:51.506Z,69.20
2017-05-17T22:08:20.122Z,69.20
2017-05-17T22:10:48.593Z,69.20
2017-05-17T22:13:17.206Z,69.40
2017-05-17T22:15:46.810Z,69.70
2017-05-17T22:18:15.833Z,69.60
2017-05-17T22:20:44.452Z,69.60
2017-05-17T22:23:13.066Z,69.90
2017-05-17T22:25:42.341Z,69.90
2017-05-17T22:28:10.964Z,69.80
2017-05-17T22:30:39.409Z,69.80
2017-05-17T22:33:08.436Z,70.00
2017-05-17T22:35:37.048Z,70.10
2017-05-17T22:38:05.671Z,70.20
2017-05-17T22:40:34.559Z,70.30
2017-05-17T22:43:03.393Z,70.30
2017-05-17T22:45:31.991Z,70.20
2017-05-17T22:48:00.834Z,70.50
2017-05-17T22:50:29.039Z,70.50
2017-05-17T22:52:57.262Z,70.50
2017-05-17T22:55:26.247Z,70.80
2017-05-17T22:57:54.464Z,70.80
2017-05-17T23:00:23.068Z,71.00
2017-05-17T23:02:51.712Z,71.20
2017-05-17T23:05:20.331Z,71.50
2017-05-17T23:07:48.548Z,71.50
2017-05-17T23:10:17.559Z,71.80
2017-05-17T23:12:46.179Z,71.90
2017-05-17T23:15:14.394Z,71.90
2017-05-17T23:17:43.029Z,72.00
2017-05-17T23:20:11.637Z,72.00
2017-05-17T23:22:40.248Z,72.30
2017-05-17T23:25:09.266Z,72.40
2017-05-17T23:27:37.871Z,72.20
2017-05-17T23:30:06.492Z,72.40
2017-05-17T23:32:35.382Z,72.70
2017-05-17T23:35:04.008Z,72.60
2017-05-17T23:37:32.620Z,72.70
2017-05-17T23:40:01.335Z,72.90
2017-05-17T23:42:30.317Z,72.70
2017-05-17T23:44:58.935Z,73.00
2017-05-17T23:47:27.777Z,72.80
2017-05-17T23:49:56.381Z,72.70
2017-05-17T23:52:25.364Z,72.90
2017-05-17T23:54:54.005Z,73.00
2017-05-17T23:57:22.613Z,73.10
2017-05-17T23:59:51.234Z,73.10
